createdAt,value
2022-12-25T00:02:03.926Z,5.80
2022-12-25T00:04:30.696Z,5.90
2022-12-25T00:06:57.439Z,5.90
2022-12-25T00:09:24.110Z,5.90
2022-12-25T00:11:50.806Z,5.90
2022-12-25T00:14:17.732Z,5.90
2022-12-25T00:16:45.112Z,5.80
2022-12-25T00:19:11.880Z,5.80
2022-12-25T00:21:38.726Z,5.80
2022-12-25T00:24:05.764Z,5.80
2022-12-25T00:26:32.559Z,5.80
2022-12-25T00:28:59.725Z,5.70
2022-12-25T00:31:27.070Z,5.80
2022-12-25T00:33:53.856Z,5.70
2022-12-25T00:36:22.920Z,5.80
2022-12-25T00:38:49.651Z,5.90
2022-12-25T00:41:39.413Z,6.00
2022-12-25T00:44:07.148Z,6.10
2022-12-25T00:46:34.027Z,6.30
2022-12-25T00:49:01.142Z,6.40
2022-12-25T00:51:28.316Z,6.60
2022-12-25T00:53:54.992Z,6.70
2022-12-25T00:56:21.719Z,6.80
2022-12-25T00:58:48.574Z,6.90
2022-12-25T01:01:15.412Z,7.10
2022-12-25T01:03:42.261Z,7.20
2022-12-25T01:06:11.152Z,7.30
2022-12-25T01:09:00.164Z,7.40
2022-12-25T01:11:27.397Z,7.50
2022-12-25T01:13:54.070Z,7.60
2022-12-25T01:16:20.979Z,7.70
2022-12-25T01:18:47.675Z,7.80
2022-12-25T01:21:16.662Z,7.90
2022-12-25T01:23:44.410Z,8.00
2022-12-25T01:26:12.854Z,8.10
2022-12-25T01:28:40.123Z,8.10
2022-12-25T01:31:10.581Z,8.20
2022-12-25T01:33:38.706Z,8.30
2022-12-25T01:36:16.642Z,8.40
2022-12-25T01:38:44.326Z,8.50
2022-12-25T01:41:13.506Z,8.60
2022-12-25T01:43:57.022Z,8.60
2022-12-25T01:46:23.803Z,8.70
2022-12-25T01:48:51.366Z,8.70
2022-12-25T01:51:33.441Z,8.80
2022-12-25T01:54:05.487Z,8.90
2022-12-25T01:56:33.881Z,8.90
2022-12-25T01:59:02.475Z,8.90
2022-12-25T02:01:29.492Z,8.90
2022-12-25T02:04:04.559Z,9.00
2022-12-25T02:06:31.701Z,9.00
2022-12-25T02:08:59.463Z,9.10
2022-12-25T02:11:45.064Z,9.10
2022-12-25T02:14:12.013Z,9.10
2022-12-25T02:16:58.330Z,9.10
2022-12-25T02:19:39.216Z,9.10
2022-12-25T02:22:41.378Z,9.20
2022-12-25T02:25:45.235Z,9.20
2022-12-25T02:28:28.012Z,9.20
2022-12-25T02:31:12.855Z,9.20
2022-12-25T02:34:05.096Z,9.30
2022-12-25T02:37:00.882Z,9.30
2022-12-25T02:39:57.079Z,9.30
2022-12-25T02:43:05.634Z,9.20
2022-12-25T02:46:00.866Z,9.20
2022-12-25T02:48:51.200Z,9.10
2022-12-25T02:51:39.252Z,9.10
2022-12-25T02:54:30.254Z,9.00
2022-12-25T02:57:19.229Z,9.00
2022-12-25T03:00:07.760Z,9.00
2022-12-25T03:02:53.761Z,9.00
2022-12-25T03:05:43.624Z,9.00
2022-12-25T03:08:17.272Z,9.00
2022-12-25T03:11:08.443Z,9.00
2022-12-25T03:13:39.739Z,9.00
2022-12-25T03:16:26.451Z,9.00
2022-12-25T03:18:55.754Z,9.00
2022-12-25T03:21:41.217Z,9.00
2022-12-25T03:24:26.762Z,9.00
2022-12-25T03:26:56.707Z,9.00
2022-12-25T03:29:51.397Z,9.00
2022-12-25T03:32:29.022Z,8.90
2022-12-25T03:35:25.778Z,9.00
2022-12-25T03:38:37.273Z,9.10
2022-12-25T03:41:29.737Z,9.10
2022-12-25T03:44:21.457Z,9.10
2022-12-25T03:47:13.405Z,9.10
2022-12-25T03:50:07.027Z,9.10
2022-12-25T03:52:53.971Z,9.10
2022-12-25T03:55:41.182Z,9.20
2022-12-25T03:58:40.401Z,9.30
2022-12-25T04:01:26.119Z,9.30
2022-12-25T04:04:11.668Z,9.40
2022-12-25T04:06:57.082Z,9.40
2022-12-25T04:09:42.650Z,9.30
2022-12-25T04:12:28.097Z,9.30
2022-12-25T04:15:13.692Z,9.30
2022-12-25T04:17:59.078Z,9.30
2022-12-25T04:20:44.298Z,9.20
2022-12-25T04:23:29.856Z,9.30
2022-12-25T04:26:18.277Z,9.30
2022-12-25T04:29:03.713Z,9.30
2022-12-25T04:31:49.188Z,9.40
2022-12-25T04:34:34.768Z,9.40
2022-12-25T04:37:01.440Z,9.40
2022-12-25T04:39:28.118Z,9.50
2022-12-25T04:41:54.782Z,9.50
2022-12-25T04:44:21.502Z,9.50
2022-12-25T04:46:48.238Z,9.50
2022-12-25T04:49:15.003Z,9.50
2022-12-25T04:51:41.685Z,9.60
2022-12-25T04:54:08.404Z,9.60
2022-12-25T04:56:39.991Z,9.60
2022-12-25T04:59:08.657Z,9.60
2022-12-25T05:01:36.031Z,9.60
2022-12-25T05:04:02.871Z,9.60
2022-12-25T05:06:29.651Z,9.60
2022-12-25T05:08:56.412Z,9.60
2022-12-25T05:11:23.226Z,9.60
2022-12-25T05:13:49.978Z,9.60
2022-12-25T05:16:18.797Z,9.60
2022-12-25T05:18:47.825Z,9.60
2022-12-25T05:21:14.553Z,9.60
2022-12-25T05:23:48.520Z,9.60
2022-12-25T05:26:17.426Z,9.60
2022-12-25T05:28:44.227Z,9.50
2022-12-25T05:31:11.235Z,9.50
2022-12-25T05:33:37.983Z,9.40
2022-12-25T05:36:06.791Z,9.40
2022-12-25T05:38:33.545Z,9.30
2022-12-25T05:41:00.893Z,9.20
2022-12-25T05:43:28.864Z,9.20
2022-12-25T05:45:55.859Z,9.10
2022-12-25T05:48:22.939Z,9.10
2022-12-25T05:50:49.958Z,9.00
2022-12-25T05:53:16.792Z,9.00
2022-12-25T05:55:44.158Z,8.90
2022-12-25T05:58:12.279Z,8.90
2022-12-25T06:00:40.352Z,8.80
2022-12-25T06:03:07.174Z,8.80
2022-12-25T06:05:33.956Z,8.80
2022-12-25T06:08:00.677Z,8.80
2022-12-25T06:10:27.358Z,8.70
2022-12-25T06:12:55.134Z,8.70
2022-12-25T06:15:21.823Z,8.70
2022-12-25T06:17:48.581Z,8.70
2022-12-25T06:20:15.513Z,8.70
2022-12-25T06:22:42.286Z,8.70
2022-12-25T06:25:09.608Z,8.70
2022-12-25T06:27:36.673Z,8.70
2022-12-25T06:30:05.083Z,8.70
2022-12-25T06:32:31.805Z,8.70
2022-12-25T06:34:58.448Z,8.70
2022-12-25T06:37:25.133Z,8.60
2022-12-25T06:39:51.868Z,8.60
2022-12-25T06:42:18.568Z,8.60
2022-12-25T06:44:45.304Z,8.60
2022-12-25T06:47:13.330Z,8.60
2022-12-25T06:49:40.043Z,8.60
2022-12-25T06:52:06.773Z,8.50
2022-12-25T06:54:33.510Z,8.50
2022-12-25T06:57:00.176Z,8.50
2022-12-25T06:59:26.847Z,8.40
2022-12-25T07:01:56.317Z,8.40
2022-12-25T07:04:38.694Z,8.40
2022-12-25T07:07:09.278Z,8.40
2022-12-25T07:09:38.738Z,8.40
2022-12-25T07:12:24.538Z,8.40
2022-12-25T07:14:54.542Z,8.40
2022-12-25T07:17:22.458Z,8.40
2022-12-25T07:19:49.426Z,8.40
2022-12-25T07:22:25.492Z,8.40
2022-12-25T07:24:52.137Z,8.40
2022-12-25T07:27:25.042Z,8.40
2022-12-25T07:29:51.680Z,8.50
2022-12-25T07:32:18.339Z,8.50
2022-12-25T07:34:45.037Z,8.50
2022-12-25T07:37:11.861Z,8.50
2022-12-25T07:39:38.555Z,8.50
2022-12-25T07:42:06.828Z,8.50
2022-12-25T07:44:33.639Z,8.60
2022-12-25T07:47:00.344Z,8.60
2022-12-25T07:49:27.029Z,8.60
2022-12-25T07:51:53.788Z,8.60
2022-12-25T07:54:20.845Z,8.70
2022-12-25T07:56:51.679Z,8.70
2022-12-25T07:59:19.175Z,8.70
2022-12-25T08:01:46.511Z,8.70
2022-12-25T08:04:13.365Z,8.70
2022-12-25T08:06:40.089Z,8.70
2022-12-25T08:09:09.216Z,8.70
2022-12-25T08:11:36.864Z,8.80
2022-12-25T08:14:09.134Z,8.80
2022-12-25T08:16:39.743Z,8.80
2022-12-25T08:19:06.658Z,8.80
2022-12-25T08:21:33.337Z,8.80
2022-12-25T08:23:59.996Z,8.80
2022-12-25T08:26:26.656Z,8.90
2022-12-25T08:28:53.447Z,8.90
2022-12-25T08:31:24.533Z,8.90
2022-12-25T08:33:53.343Z,8.90
2022-12-25T08:36:20.319Z,9.00
2022-12-25T08:38:47.981Z,9.00
2022-12-25T08:41:15.899Z,9.00
2022-12-25T08:43:42.818Z,9.00
2022-12-25T08:46:09.987Z,9.00
2022-12-25T08:48:37.452Z,9.10
2022-12-25T08:51:04.917Z,9.10
2022-12-25T08:53:31.717Z,9.10
2022-12-25T08:56:00.716Z,9.10
2022-12-25T08:58:28.265Z,9.20
2022-12-25T09:01:04.977Z,9.20
2022-12-25T09:03:34.629Z,9.20
2022-12-25T09:06:06.459Z,9.20
2022-12-25T09:08:33.798Z,9.20
2022-12-25T09:11:09.483Z,9.20
2022-12-25T09:13:36.873Z,9.20
2022-12-25T09:16:12.403Z,9.20
2022-12-25T09:18:39.286Z,9.20
2022-12-25T09:21:09.595Z,9.20
2022-12-25T09:23:36.565Z,9.20
2022-12-25T09:26:06.156Z,9.20
2022-12-25T09:28:32.900Z,9.30
2022-12-25T09:30:59.898Z,9.30
2022-12-25T09:33:26.777Z,9.30
2022-12-25T09:36:02.297Z,9.30
2022-12-25T09:38:30.064Z,9.30
2022-12-25T09:41:02.511Z,9.30
2022-12-25T09:43:33.299Z,9.40
2022-12-25T09:46:02.410Z,9.30
2022-12-25T09:48:32.698Z,9.40
2022-12-25T09:51:22.672Z,9.40
2022-12-25T09:53:56.086Z,9.40
2022-12-25T09:56:25.876Z,9.40
2022-12-25T09:58:53.811Z,9.40
2022-12-25T10:01:39.604Z,9.40
2022-12-25T10:04:44.150Z,9.50
2022-12-25T10:07:16.868Z,9.40
2022-12-25T10:10:06.463Z,9.40
2022-12-25T10:12:53.760Z,9.50
2022-12-25T10:15:32.300Z,9.50
2022-12-25T10:18:04.755Z,9.50
2022-12-25T10:20:57.150Z,9.50
2022-12-25T10:23:33.793Z,9.50
2022-12-25T10:26:00.695Z,9.50
2022-12-25T10:28:38.815Z,9.50
2022-12-25T10:31:21.121Z,9.50
2022-12-25T10:33:50.113Z,9.40
2022-12-25T10:36:20.851Z,9.50
2022-12-25T10:38:48.139Z,9.40
2022-12-25T10:41:35.601Z,9.40
2022-12-25T10:44:13.750Z,9.50
2022-12-25T10:46:41.155Z,9.50
2022-12-25T10:49:14.944Z,9.50
2022-12-25T10:51:41.661Z,9.50
2022-12-25T10:54:28.266Z,9.50
2022-12-25T10:56:57.319Z,9.50
2022-12-25T10:59:26.435Z,9.50
2022-12-25T11:01:55.578Z,9.50
2022-12-25T11:04:28.430Z,9.50
2022-12-25T11:07:02.918Z,9.50
2022-12-25T11:09:29.753Z,9.60
2022-12-25T11:11:56.744Z,9.60
2022-12-25T11:14:23.829Z,9.60
2022-12-25T11:16:50.576Z,9.60
2022-12-25T11:19:27.291Z,9.50
2022-12-25T11:22:00.089Z,9.50
2022-12-25T11:24:29.420Z,9.60
2022-12-25T11:26:58.536Z,9.50
2022-12-25T11:29:31.444Z,9.60
2022-12-25T11:32:00.499Z,9.50
2022-12-25T11:34:49.513Z,9.50
2022-12-25T11:37:20.064Z,9.50
2022-12-25T11:39:46.810Z,9.50
2022-12-25T11:42:24.067Z,9.50
2022-12-25T11:45:07.482Z,9.50
2022-12-25T11:47:54.546Z,9.50
2022-12-25T11:50:38.437Z,9.50
2022-12-25T11:53:19.899Z,9.50
2022-12-25T11:55:58.284Z,9.50
2022-12-25T11:58:35.184Z,9.50
2022-12-25T12:01:06.184Z,9.60
2022-12-25T12:03:39.758Z,9.50
2022-12-25T12:06:41.805Z,9.60
2022-12-25T12:09:44.293Z,9.60
2022-12-25T12:12:34.616Z,9.60
2022-12-25T12:15:29.315Z,9.60
2022-12-25T12:18:07.525Z,9.60
2022-12-25T12:20:36.002Z,9.70
2022-12-25T12:23:11.172Z,9.70
2022-12-25T12:25:42.362Z,9.70
2022-12-25T12:28:24.325Z,9.70
2022-12-25T12:30:58.491Z,9.70
2022-12-25T12:33:30.378Z,9.70
2022-12-25T12:35:57.582Z,9.80
2022-12-25T12:38:25.569Z,9.80
2022-12-25T12:41:04.194Z,9.80
2022-12-25T12:43:45.183Z,9.90
2022-12-25T12:46:31.006Z,9.90
2022-12-25T12:49:20.055Z,9.80
2022-12-25T12:51:46.893Z,9.80
2022-12-25T12:54:24.169Z,9.80
2022-12-25T12:56:58.928Z,9.80
2022-12-25T12:59:27.200Z,9.80
2022-12-25T13:01:56.951Z,9.80
2022-12-25T13:04:42.774Z,9.90
2022-12-25T13:07:51.195Z,9.90
2022-12-25T13:10:31.283Z,9.90
2022-12-25T13:13:03.072Z,9.90
2022-12-25T13:15:34.162Z,9.80
2022-12-25T13:18:11.263Z,9.90
2022-12-25T13:20:55.142Z,9.90
2022-12-25T13:23:33.503Z,9.90
2022-12-25T13:26:17.426Z,9.90
2022-12-25T13:28:47.170Z,9.90
2022-12-25T13:31:14.177Z,9.90
2022-12-25T13:33:45.689Z,9.90
2022-12-25T13:36:13.705Z,9.90
2022-12-25T13:38:45.927Z,9.90
2022-12-25T13:41:37.192Z,10.00
2022-12-25T13:44:14.695Z,10.00
2022-12-25T13:46:41.472Z,10.00
2022-12-25T13:49:17.451Z,10.10
2022-12-25T13:51:44.855Z,10.00
2022-12-25T13:54:14.336Z,10.00
2022-12-25T13:56:53.265Z,10.00
2022-12-25T13:59:22.991Z,10.00
2022-12-25T14:01:51.608Z,10.00
2022-12-25T14:04:24.040Z,10.00
2022-12-25T14:06:52.304Z,10.00
2022-12-25T14:09:20.032Z,10.00
2022-12-25T14:11:51.428Z,10.00
2022-12-25T14:14:22.908Z,10.00
2022-12-25T14:16:53.606Z,10.00
2022-12-25T14:19:27.649Z,10.00
2022-12-25T14:22:11.110Z,10.00
2022-12-25T14:24:39.663Z,10.00
2022-12-25T14:27:17.223Z,10.00
2022-12-25T14:29:46.850Z,10.00
2022-12-25T14:32:22.560Z,10.00
2022-12-25T14:34:53.783Z,10.00
2022-12-25T14:37:23.928Z,10.00
2022-12-25T14:40:21.616Z,10.00
2022-12-25T14:42:56.932Z,10.00
2022-12-25T14:45:28.905Z,10.00
2022-12-25T14:48:02.856Z,9.90
2022-12-25T14:50:41.214Z,9.90
2022-12-25T14:53:19.594Z,10.00
2022-12-25T14:55:50.552Z,9.90
2022-12-25T14:58:27.846Z,9.90
2022-12-25T15:00:57.732Z,9.90
2022-12-25T15:03:37.013Z,9.90
2022-12-25T15:06:06.445Z,9.90
2022-12-25T15:08:34.885Z,9.90
2022-12-25T15:11:03.221Z,9.90
2022-12-25T15:13:31.372Z,9.90
2022-12-25T15:16:11.520Z,9.90
2022-12-25T15:18:41.627Z,10.00
2022-12-25T15:21:15.784Z,9.90
2022-12-25T15:23:42.627Z,9.90
2022-12-25T15:26:13.360Z,9.90
2022-12-25T15:28:40.025Z,9.90
2022-12-25T15:31:20.016Z,9.90
2022-12-25T15:33:46.808Z,9.90
2022-12-25T15:36:13.916Z,9.90
2022-12-25T15:38:40.724Z,9.90
2022-12-25T15:41:53.708Z,9.90
2022-12-25T15:44:20.758Z,9.90
2022-12-25T15:46:47.688Z,9.80
2022-12-25T15:49:15.413Z,9.80
2022-12-25T15:51:43.450Z,9.80
2022-12-25T15:54:10.920Z,9.80
2022-12-25T15:56:51.479Z,9.80
2022-12-25T15:59:19.583Z,9.80
2022-12-25T16:01:52.697Z,9.80
2022-12-25T16:04:20.212Z,9.80
2022-12-25T16:06:47.036Z,9.80
2022-12-25T16:09:15.231Z,9.80
2022-12-25T16:11:42.501Z,9.80
2022-12-25T16:14:09.862Z,9.80
2022-12-25T16:16:36.873Z,9.80
2022-12-25T16:19:03.988Z,9.80
2022-12-25T16:21:39.291Z,9.80
2022-12-25T16:24:06.514Z,9.80
2022-12-25T16:26:34.234Z,9.80
2022-12-25T16:29:06.788Z,9.80
2022-12-25T16:31:34.271Z,9.90
2022-12-25T16:34:01.543Z,9.80
2022-12-25T16:36:28.393Z,9.80
2022-12-25T16:38:55.210Z,9.80
2022-12-25T16:41:22.212Z,9.80
2022-12-25T16:43:48.879Z,9.80
2022-12-25T16:46:18.545Z,9.80
2022-12-25T16:48:45.239Z,9.80
2022-12-25T16:51:14.670Z,9.80
2022-12-25T16:53:41.527Z,9.80
2022-12-25T16:56:10.662Z,9.80
2022-12-25T16:58:37.824Z,9.80
2022-12-25T17:01:09.659Z,9.80
2022-12-25T17:03:36.918Z,9.80
2022-12-25T17:06:04.969Z,9.70
2022-12-25T17:08:31.791Z,9.70
2022-12-25T17:10:58.469Z,9.70
2022-12-25T17:13:25.116Z,9.70
2022-12-25T17:15:51.805Z,9.70
2022-12-25T17:18:21.873Z,9.70
2022-12-25T17:20:52.938Z,9.80
2022-12-25T17:23:22.546Z,9.70
2022-12-25T17:25:49.206Z,9.70
2022-12-25T17:28:16.314Z,9.70
2022-12-25T17:30:42.990Z,9.70
2022-12-25T17:33:09.653Z,9.70
2022-12-25T17:35:37.411Z,9.70
2022-12-25T17:38:04.164Z,9.70
2022-12-25T17:40:30.889Z,9.70
2022-12-25T17:42:57.611Z,9.70
2022-12-25T17:45:24.317Z,9.70
2022-12-25T17:47:54.954Z,9.70
2022-12-25T17:50:25.365Z,9.60
2022-12-25T17:52:52.911Z,9.60
2022-12-25T17:55:19.563Z,9.60
2022-12-25T17:57:46.268Z,9.70
2022-12-25T18:00:14.207Z,9.70
2022-12-25T18:02:43.862Z,9.70
2022-12-25T18:05:10.854Z,9.70
2022-12-25T18:07:37.553Z,9.70
2022-12-25T18:10:04.622Z,9.70
2022-12-25T18:12:31.354Z,9.60
2022-12-25T18:14:58.190Z,9.60
2022-12-25T18:17:24.892Z,9.60
2022-12-25T18:19:51.691Z,9.60
2022-12-25T18:22:19.025Z,9.60
2022-12-25T18:24:45.780Z,9.60
2022-12-25T18:27:12.489Z,9.60
2022-12-25T18:29:39.178Z,9.60
2022-12-25T18:32:06.202Z,9.60
2022-12-25T18:34:33.094Z,9.60
2022-12-25T18:37:03.008Z,9.60
2022-12-25T18:39:31.567Z,9.60
2022-12-25T18:42:17.933Z,9.60
2022-12-25T18:44:45.098Z,9.60
2022-12-25T18:47:11.866Z,9.60
2022-12-25T18:49:38.583Z,9.60
2022-12-25T18:52:50.080Z,9.60
2022-12-25T18:54:54.706Z,9.60
2022-12-25T18:57:22.021Z,9.70
2022-12-25T18:59:48.830Z,9.50
2022-12-25T19:02:16.691Z,9.50
2022-12-25T19:04:46.195Z,9.50
2022-12-25T19:07:13.170Z,9.50
2022-12-25T19:09:40.271Z,9.50
2022-12-25T19:12:07.329Z,9.40
2022-12-25T19:14:47.212Z,9.40
2022-12-25T19:17:15.717Z,9.50
2022-12-25T19:19:42.419Z,9.50
2022-12-25T19:22:12.343Z,9.50
2022-12-25T19:24:41.290Z,9.50
2022-12-25T19:27:08.151Z,9.50
2022-12-25T19:29:34.876Z,9.50
2022-12-25T19:32:01.741Z,9.50
2022-12-25T19:34:28.456Z,9.50
2022-12-25T19:36:55.398Z,9.50
2022-12-25T19:39:22.208Z,9.50
2022-12-25T19:41:48.982Z,9.50
2022-12-25T19:44:15.732Z,9.50
2022-12-25T19:46:42.584Z,9.50
2022-12-25T19:49:13.652Z,9.50
2022-12-25T19:51:43.280Z,9.50
2022-12-25T19:54:13.765Z,9.60
2022-12-25T19:56:41.547Z,9.50
2022-12-25T19:59:08.336Z,9.50
2022-12-25T20:01:35.394Z,9.50
2022-12-25T20:04:02.210Z,9.50
2022-12-25T20:06:31.549Z,9.50
2022-12-25T20:09:02.609Z,9.50
2022-12-25T20:11:31.434Z,9.50
2022-12-25T20:13:58.606Z,9.50
2022-12-25T20:16:25.861Z,9.50
2022-12-25T20:18:53.205Z,9.50
2022-12-25T20:21:21.516Z,9.50
2022-12-25T20:23:50.260Z,9.50
2022-12-25T20:26:19.890Z,9.50
2022-12-25T20:28:47.078Z,9.50
2022-12-25T20:31:19.510Z,9.50
2022-12-25T20:33:46.597Z,9.50
2022-12-25T20:36:14.367Z,9.50
2022-12-25T20:38:41.311Z,9.50
2022-12-25T20:41:28.755Z,9.50
2022-12-25T20:43:56.423Z,9.50
2022-12-25T20:46:24.014Z,9.50
2022-12-25T20:48:51.974Z,9.50
2022-12-25T20:51:24.557Z,9.50
2022-12-25T20:53:51.790Z,9.50
2022-12-25T20:56:21.283Z,9.50
2022-12-25T20:58:48.204Z,9.50
2022-12-25T21:01:17.807Z,9.50
2022-12-25T21:03:47.521Z,9.50
2022-12-25T21:06:17.274Z,9.50
2022-12-25T21:08:44.189Z,9.50
2022-12-25T21:11:11.736Z,9.50
2022-12-25T21:13:41.225Z,9.50
2022-12-25T21:16:11.868Z,9.50
2022-12-25T21:18:39.526Z,9.50
2022-12-25T21:21:07.754Z,9.50
2022-12-25T21:23:36.895Z,9.50
2022-12-25T21:26:20.378Z,9.50
2022-12-25T21:28:48.735Z,9.50
2022-12-25T21:31:15.891Z,9.50
2022-12-25T21:33:51.614Z,9.50
2022-12-25T21:36:29.059Z,9.50
2022-12-25T21:39:07.824Z,9.50
2022-12-25T21:41:37.374Z,9.60
2022-12-25T21:44:04.683Z,9.60
2022-12-25T21:46:31.822Z,9.60
2022-12-25T21:48:59.329Z,9.60
2022-12-25T21:51:48.111Z,9.60
2022-12-25T21:54:15.397Z,9.60
2022-12-25T21:56:45.466Z,9.60
2022-12-25T21:59:17.195Z,9.60
2022-12-25T22:01:44.767Z,9.60
2022-12-25T22:04:13.442Z,9.60
2022-12-25T22:06:59.038Z,9.60
2022-12-25T22:09:26.056Z,9.60
2022-12-25T22:12:11.202Z,9.60
2022-12-25T22:14:54.347Z,9.60
2022-12-25T22:17:44.069Z,9.60
2022-12-25T22:20:14.278Z,9.60
2022-12-25T22:22:41.187Z,9.60
2022-12-25T22:25:09.135Z,9.60
2022-12-25T22:27:37.969Z,9.60
2022-12-25T22:30:06.620Z,9.60
2022-12-25T22:32:33.844Z,9.60
2022-12-25T22:35:00.667Z,9.60
2022-12-25T22:37:27.493Z,9.60
2022-12-25T22:39:54.155Z,9.70
2022-12-25T22:42:20.956Z,9.70
2022-12-25T22:44:47.639Z,9.70
2022-12-25T22:47:14.366Z,9.60
2022-12-25T22:49:41.178Z,9.70
2022-12-25T22:52:09.742Z,9.70
2022-12-25T22:54:36.813Z,9.70
2022-12-25T22:57:04.472Z,9.80
2022-12-25T22:59:33.025Z,9.80
2022-12-25T23:02:00.799Z,9.80
2022-12-25T23:04:29.005Z,9.80
2022-12-25T23:06:56.186Z,9.80
2022-12-25T23:09:27.618Z,9.80
2022-12-25T23:11:56.441Z,9.80
2022-12-25T23:14:38.711Z,9.80
2022-12-25T23:17:30.600Z,9.80
2022-12-25T23:20:17.033Z,9.80
2022-12-25T23:23:02.822Z,9.90
2022-12-25T23:25:48.317Z,9.90
2022-12-25T23:28:35.206Z,9.90
2022-12-25T23:31:02.023Z,9.90
2022-12-25T23:33:28.811Z,9.90
2022-12-25T23:35:55.460Z,9.90
2022-12-25T23:38:22.296Z,9.90
2022-12-25T23:40:48.974Z,9.90
2022-12-25T23:43:15.713Z,9.90
2022-12-25T23:45:42.397Z,9.90
2022-12-25T23:48:09.093Z,9.90
2022-12-25T23:50:35.791Z,9.90
2022-12-25T23:53:02.472Z,9.90
2022-12-25T23:55:29.212Z,9.90
2022-12-25T23:57:55.963Z,9.90
